Time;durP1;ratioP1;P1;durP2;ratioP2;P2;SDS_P1;SDS_P2;PMS_P1;PMS_P2;Temp;Humidity;BMP_temperature;BMP_pressure;BME280_temperature;BME280_humidity;BME280_pressure;Samples;Min_cycle;Max_cycle;Signal;HPM_P1;HPM_P2
2022/07/06 00:01:24;;;;;;;2.00;1.20;;;18.20;81.50;;;;;;5028013;28;20113;-78
2022/07/06 00:03:50;;;;;;;2.20;1.20;;;18.10;81.80;;;;;;5062133;28;20036;-78
2022/07/06 00:06:17;;;;;;;2.03;1.27;;;18.00;82.00;;;;;;5035957;28;20021;-79
2022/07/06 00:08:43;;;;;;;4.63;1.13;;;18.00;82.30;;;;;;5057426;28;20378;-77
2022/07/06 00:11:09;;;;;;;2.45;1.20;;;18.00;82.50;;;;;;5064814;28;20025;-79
2022/07/06 00:13:35;;;;;;;1.80;1.35;;;17.90;82.60;;;;;;5058198;28;20059;-79
2022/07/06 00:16:01;;;;;;;1.80;1.00;;;17.90;82.80;;;;;;5065787;28;20024;-79
2022/07/06 00:18:27;;;;;;;2.35;1.67;;;17.90;83.00;;;;;;5055519;28;20503;-79
2022/07/06 00:20:53;;;;;;;4.13;1.48;;;17.80;83.00;;;;;;5061853;28;20021;-79
2022/07/06 00:23:18;;;;;;;4.25;1.88;;;17.80;83.20;;;;;;5061208;28;20525;-80
2022/07/06 00:25:44;;;;;;;3.65;1.33;;;17.80;83.30;;;;;;5037321;28;20024;-78
2022/07/06 00:28:10;;;;;;;2.70;1.35;;;17.80;83.50;;;;;;5057201;28;20078;-79
2022/07/06 00:30:36;;;;;;;3.35;1.90;;;17.70;83.70;;;;;;5055742;28;20425;-78
2022/07/06 00:33:02;;;;;;;6.07;1.73;;;17.70;83.80;;;;;;5061567;28;20021;-78
2022/07/06 00:35:27;;;;;;;2.13;1.35;;;17.70;84.00;;;;;;5056420;28;20049;-79
2022/07/06 00:37:54;;;;;;;3.97;1.58;;;17.60;84.20;;;;;;5058148;28;20037;-79
2022/07/06 00:40:20;;;;;;;2.03;1.40;;;17.60;84.40;;;;;;5057668;28;20031;-80
2022/07/06 00:42:47;;;;;;;4.10;1.40;;;17.60;84.60;;;;;;5054060;28;20707;-78
2022/07/06 00:45:14;;;;;;;4.18;1.65;;;17.60;84.80;;;;;;5042814;28;20462;-78
2022/07/06 00:47:41;;;;;;;3.13;1.45;;;17.50;85.10;;;;;;5057591;28;20044;-78
2022/07/06 00:50:14;;;;;;;3.08;1.40;;;17.50;85.10;;;;;;5056366;28;20025;-78
2022/07/06 00:52:41;;;;;;;3.83;1.50;;;17.50;85.30;;;;;;5057928;28;20036;-79
2022/07/06 00:55:08;;;;;;;2.70;1.45;;;17.40;85.50;;;;;;5054897;28;20513;-77
2022/07/06 00:57:35;;;;;;;4.10;1.17;;;17.40;85.90;;;;;;5057582;28;20028;-78
2022/07/06 01:00:05;;;;;;;2.30;1.60;;;17.40;86.10;;;;;;5053041;28;20103;-78
2022/07/06 01:02:32;;;;;;;2.13;1.45;;;17.30;86.20;;;;;;5056190;28;20029;-78
2022/07/06 01:04:58;;;;;;;3.42;1.60;;;17.30;86.50;;;;;;5056198;28;20024;-78
2022/07/06 01:07:24;;;;;;;2.08;1.10;;;17.30;86.60;;;;;;5053572;28;20025;-79
2022/07/06 01:09:50;;;;;;;1.85;1.13;;;17.30;86.80;;;;;;5056263;28;20021;-78
2022/07/06 01:12:16;;;;;;;2.92;1.15;;;17.30;86.90;;;;;;5040123;28;20025;-78
2022/07/06 01:14:42;;;;;;;3.38;1.23;;;17.20;86.80;;;;;;5059097;28;20064;-77
2022/07/06 01:17:08;;;;;;;2.50;1.23;;;17.20;87.00;;;;;;5057368;28;20416;-78
2022/07/06 01:19:34;;;;;;;2.75;1.30;;;17.20;87.20;;;;;;5056963;28;20025;-76
2022/07/06 01:22:00;;;;;;;2.22;1.20;;;17.10;87.20;;;;;;5057291;28;20031;-77
2022/07/06 01:24:26;;;;;;;3.90;1.20;;;17.10;87.40;;;;;;5051386;28;20083;-78
2022/07/06 01:26:52;;;;;;;2.42;1.15;;;17.10;87.70;;;;;;5051157;28;20025;-77
2022/07/06 01:29:18;;;;;;;3.58;1.90;;;17.10;87.70;;;;;;5049882;28;20686;-79
2022/07/06 01:31:50;;;;;;;3.08;1.48;;;17.10;87.80;;;;;;5058986;28;20036;-78
2022/07/06 01:34:17;;;;;;;4.30;1.40;;;17.00;87.90;;;;;;5055727;28;20075;-78
2022/07/06 01:36:44;;;;;;;2.80;1.40;;;17.00;87.90;;;;;;5054439;28;20028;-78
2022/07/06 01:39:10;;;;;;;6.13;1.30;;;17.00;88.10;;;;;;5039539;28;20115;-78
2022/07/06 01:41:35;;;;;;;4.57;1.50;;;16.90;88.10;;;;;;5058740;28;20028;-78
2022/07/06 01:44:02;;;;;;;2.22;1.48;;;16.90;88.30;;;;;;5042411;28;20032;-78
2022/07/06 01:46:27;;;;;;;2.25;1.48;;;16.90;88.50;;;;;;5062315;28;20468;-80
2022/07/06 01:48:53;;;;;;;3.47;1.30;;;16.80;88.50;;;;;;5062048;28;20068;-78
2022/07/06 01:51:20;;;;;;;3.70;1.85;;;16.80;89.40;;;;;;5057298;28;20108;-78
2022/07/06 01:53:46;;;;;;;4.95;2.00;;;16.80;89.00;;;;;;5060270;28;20025;-79
2022/07/06 01:56:12;;;;;;;3.42;1.77;;;16.70;89.00;;;;;;5055524;28;20028;-78
2022/07/06 01:58:38;;;;;;;3.60;1.80;;;16.70;89.10;;;;;;5052952;28;20028;-77
2022/07/06 02:01:15;;;;;;;4.35;1.92;;;16.70;89.20;;;;;;5055474;28;20548;-78
2022/07/06 02:03:41;;;;;;;2.63;1.70;;;16.70;89.30;;;;;;5055355;28;20533;-79
2022/07/06 02:06:07;;;;;;;3.53;1.90;;;16.70;89.40;;;;;;5053883;28;20049;-79
2022/07/06 02:08:34;;;;;;;4.90;1.55;;;16.60;89.70;;;;;;5017539;28;20059;-80
2022/07/06 02:11:00;;;;;;;2.08;1.50;;;16.60;89.80;;;;;;5050585;28;20028;-80
2022/07/06 02:13:26;;;;;;;3.72;1.52;;;16.60;90.00;;;;;;5057143;28;20033;-80
2022/07/06 02:15:51;;;;;;;5.88;2.17;;;16.60;90.10;;;;;;5055971;28;20028;-80
2022/07/06 02:18:17;;;;;;;4.65;1.80;;;16.60;90.20;;;;;;5061373;28;20130;-81
2022/07/06 02:20:43;;;;;;;4.78;1.58;;;16.60;90.20;;;;;;5059623;28;20040;-80
2022/07/06 02:23:09;;;;;;;4.10;1.80;;;16.60;90.50;;;;;;5065545;28;20017;-78
2022/07/06 02:25:34;;;;;;;3.35;1.83;;;16.50;90.40;;;;;;5058424;28;20021;-77
2022/07/06 02:28:00;;;;;;;3.70;1.63;;;16.50;90.40;;;;;;5058498;28;20088;-77
2022/07/06 02:30:26;;;;;;;3.80;1.85;;;16.50;90.60;;;;;;5064375;28;20052;-77
2022/07/06 02:32:51;;;;;;;2.67;1.63;;;16.50;90.60;;;;;;5066709;28;20099;-78
2022/07/06 02:35:17;;;;;;;3.40;1.65;;;16.40;90.70;;;;;;5057875;28;20122;-78
2022/07/06 02:37:43;;;;;;;1.92;1.60;;;16.40;90.80;;;;;;5059038;28;20122;-77
2022/07/06 02:40:09;;;;;;;2.70;1.75;;;16.40;90.90;;;;;;5060693;28;20110;-78
2022/07/06 02:42:35;;;;;;;8.18;2.22;;;16.30;90.90;;;;;;5055114;28;20060;-77
2022/07/06 02:45:01;;;;;;;3.20;1.80;;;16.30;91.00;;;;;;5056364;28;20033;-77
2022/07/06 02:47:27;;;;;;;2.85;1.73;;;16.30;91.20;;;;;;5061281;28;20307;-77
2022/07/06 02:49:53;;;;;;;2.58;1.95;;;16.20;91.30;;;;;;5058756;28;20029;-78
2022/07/06 02:52:19;;;;;;;3.45;1.90;;;16.20;91.40;;;;;;5041139;28;20029;-78
2022/07/06 02:54:45;;;;;;;3.83;1.77;;;16.20;91.50;;;;;;5063180;28;20016;-79
2022/07/06 02:57:11;;;;;;;3.08;1.90;;;16.10;91.60;;;;;;5066521;28;20021;-78
2022/07/06 02:59:37;;;;;;;4.80;1.73;;;16.20;91.70;;;;;;5062868;28;20104;-78
2022/07/06 03:02:05;;;;;;;4.57;2.33;;;16.10;91.70;;;;;;5065148;28;20029;-78
2022/07/06 03:04:31;;;;;;;3.53;1.88;;;16.10;91.80;;;;;;5045554;28;20033;-78
2022/07/06 03:06:56;;;;;;;6.55;2.22;;;16.10;91.90;;;;;;5049700;28;20026;-79
2022/07/06 03:09:22;;;;;;;5.00;2.08;;;16.10;92.10;;;;;;5057668;28;20025;-79
2022/07/06 03:11:48;;;;;;;4.10;2.47;;;16.00;92.20;;;;;;5063927;28;20040;-78
2022/07/06 03:14:13;;;;;;;2.83;2.00;;;16.00;92.20;;;;;;5062208;28;20070;-80
2022/07/06 03:16:39;;;;;;;4.35;2.00;;;16.00;92.30;;;;;;5056185;28;20028;-79
2022/07/06 03:19:05;;;;;;;3.15;1.77;;;16.00;92.30;;;;;;5039893;28;20543;-78
2022/07/06 03:21:31;;;;;;;3.45;2.15;;;16.00;92.40;;;;;;5058653;28;20366;-79
2022/07/06 03:23:56;;;;;;;7.35;2.15;;;16.00;92.50;;;;;;5064096;28;20029;-79
2022/07/06 03:26:22;;;;;;;3.60;2.10;;;15.90;92.60;;;;;;5054092;28;20036;-79
2022/07/06 03:28:47;;;;;;;3.95;2.35;;;15.80;92.60;;;;;;5036443;28;20053;-79
2022/07/06 03:31:13;;;;;;;5.63;2.03;;;15.80;92.80;;;;;;5064587;28;20048;-79
2022/07/06 03:33:39;;;;;;;3.95;2.25;;;15.80;92.90;;;;;;5073463;28;20025;-79
2022/07/06 03:36:05;;;;;;;4.50;2.35;;;15.80;93.00;;;;;;5049525;28;20052;-79
2022/07/06 03:38:31;;;;;;;7.13;2.63;;;15.80;93.10;;;;;;5071766;28;20088;-79
2022/07/06 03:40:56;;;;;;;6.10;2.45;;;15.70;93.20;;;;;;5068101;28;20095;-79
2022/07/06 03:43:22;;;;;;;4.07;2.20;;;15.70;93.30;;;;;;5068043;28;20024;-79
2022/07/06 03:45:48;;;;;;;4.40;2.30;;;15.80;93.40;;;;;;5043674;28;20112;-78
2022/07/06 03:48:13;;;;;;;4.35;2.42;;;15.70;93.40;;;;;;5067761;28;20033;-79
2022/07/06 03:50:39;;;;;;;3.75;2.50;;;15.70;93.50;;;;;;5069921;28;20625;-79
2022/07/06 03:53:05;;;;;;;5.88;2.40;;;15.70;93.50;;;;;;5073637;28;20025;-79
2022/07/06 03:55:30;;;;;;;7.05;2.20;;;15.70;93.60;;;;;;5066509;28;20085;-78
2022/07/06 03:57:56;;;;;;;6.82;2.55;;;15.70;93.70;;;;;;5051680;28;20036;-79
2022/07/06 04:00:22;;;;;;;5.05;2.80;;;15.70;93.70;;;;;;5059757;28;20020;-79
2022/07/06 04:02:47;;;;;;;4.32;2.10;;;15.70;93.80;;;;;;5066842;28;20035;-78
2022/07/06 04:05:13;;;;;;;4.72;2.50;;;15.70;93.90;;;;;;5066113;28;20029;-80
2022/07/06 04:07:39;;;;;;;3.72;2.35;;;15.70;94.00;;;;;;5071133;28;20021;-79
2022/07/06 04:10:05;;;;;;;4.35;2.88;;;15.70;94.00;;;;;;5071520;28;20025;-79
2022/07/06 04:12:31;;;;;;;4.38;2.58;;;15.70;94.10;;;;;;5068949;28;20037;-79
2022/07/06 04:14:57;;;;;;;7.38;2.80;;;15.70;94.10;;;;;;5073205;28;20017;-79
2022/07/06 04:20:08;;;;;;;3.80;2.35;;;15.70;94.20;;;;;;5067501;28;20105;-78
2022/07/06 04:22:38;;;;;;;5.10;2.65;;;15.80;94.30;;;;;;5062191;28;20040;-78
2022/07/06 04:25:04;;;;;;;4.55;2.38;;;15.80;94.30;;;;;;5045944;28;20103;-81
2022/07/06 04:27:29;;;;;;;3.85;2.35;;;15.90;94.30;;;;;;5056795;28;20047;-79
2022/07/06 04:29:55;;;;;;;4.20;2.47;;;15.90;94.30;;;;;;5059182;28;20060;-78
2022/07/06 04:32:20;;;;;;;3.47;2.70;;;16.00;94.20;;;;;;5054152;28;20075;-78
2022/07/06 04:34:46;;;;;;;4.43;2.55;;;16.00;94.20;;;;;;5054719;28;20021;-77
2022/07/06 04:37:12;;;;;;;4.75;2.22;;;16.10;94.10;;;;;;5043788;28;20021;-79
2022/07/06 04:39:37;;;;;;;3.88;2.53;;;16.10;94.00;;;;;;5057590;28;21153;-78
2022/07/06 04:42:03;;;;;;;3.97;2.63;;;16.20;93.90;;;;;;5061838;28;20029;-77
2022/07/06 04:44:29;;;;;;;4.88;2.67;;;16.30;93.70;;;;;;5060719;28;20064;-78
2022/07/06 04:46:55;;;;;;;4.15;2.53;;;16.40;93.70;;;;;;5043649;28;20029;-79
2022/07/06 04:49:20;;;;;;;4.93;2.22;;;16.50;93.90;;;;;;5054641;28;20457;-78
2022/07/06 04:51:46;;;;;;;5.72;2.88;;;16.60;93.40;;;;;;5056845;28;20021;-80
2022/07/06 04:54:11;;;;;;;3.53;3.00;;;16.70;93.30;;;;;;5055980;28;20047;-79
2022/07/06 04:56:37;;;;;;;7.03;2.78;;;16.80;93.20;;;;;;5061500;28;20251;-70
2022/07/06 04:59:03;;;;;;;5.20;2.47;;;17.00;93.00;;;;;;5043236;28;20025;-71
2022/07/06 05:01:28;;;;;;;4.53;2.30;;;17.20;92.70;;;;;;5045571;28;20489;-72
2022/07/06 05:03:54;;;;;;;7.05;2.53;;;17.30;92.50;;;;;;5053863;28;20121;-72
2022/07/06 05:06:20;;;;;;;4.55;2.78;;;17.50;92.30;;;;;;5054277;28;20401;-72
2022/07/06 05:08:46;;;;;;;3.67;2.70;;;17.60;92.00;;;;;;5061068;28;20035;-72
2022/07/06 05:11:11;;;;;;;6.75;2.47;;;17.80;91.50;;;;;;5046505;28;20024;-73
2022/07/06 05:13:37;;;;;;;6.03;3.10;;;17.90;91.40;;;;;;5061238;28;20016;-72
2022/07/06 05:16:03;;;;;;;7.32;2.85;;;18.00;91.30;;;;;;5033984;28;20036;-71
2022/07/06 05:18:30;;;;;;;6.60;3.10;;;18.20;91.10;;;;;;5055661;28;20029;-72
2022/07/06 05:20:55;;;;;;;4.47;3.05;;;18.30;90.50;;;;;;5052139;28;20024;-72
2022/07/06 05:23:21;;;;;;;6.65;3.42;;;18.40;90.30;;;;;;5057232;28;20378;-71
2022/07/06 05:25:47;;;;;;;6.50;3.60;;;18.60;90.00;;;;;;5053517;28;20033;-73
2022/07/06 05:28:12;;;;;;;9.65;3.10;;;18.70;89.90;;;;;;5054053;28;20609;-71
2022/07/06 05:30:38;;;;;;;6.40;3.08;;;18.90;89.20;;;;;;5053679;28;20059;-77
2022/07/06 05:33:04;;;;;;;9.63;3.13;;;19.00;88.40;;;;;;5055228;28;20021;-77
2022/07/06 05:35:30;;;;;;;5.20;3.30;;;19.20;87.80;;;;;;5048329;28;20033;-76
2022/07/06 05:37:55;;;;;;;7.70;3.25;;;19.30;87.20;;;;;;5051748;28;20594;-76
2022/07/06 05:40:21;;;;;;;6.30;2.85;;;19.50;86.90;;;;;;5051145;28;20040;-77
2022/07/06 05:42:47;;;;;;;11.30;2.50;;;19.60;86.00;;;;;;5053890;28;20051;-77
2022/07/06 05:45:13;;;;;;;3.42;2.85;;;19.70;85.40;;;;;;5053146;28;20560;-77
2022/07/06 05:50:23;;;;;;;5.05;2.65;;;19.90;84.10;;;;;;5050478;28;20551;-76
2022/07/06 05:53:03;;;;;;;4.20;2.42;;;20.00;83.60;;;;;;5055590;28;20033;-75
2022/07/06 05:55:29;;;;;;;9.88;2.92;;;20.00;83.10;;;;;;5055319;28;20036;-75
2022/07/06 05:57:55;;;;;;;5.20;2.83;;;20.10;83.00;;;;;;5059473;28;20482;-76
2022/07/06 06:00:24;;;;;;;5.70;2.70;;;20.30;82.70;;;;;;5053432;28;20402;-76
2022/07/06 06:02:50;;;;;;;6.88;3.08;;;20.30;81.80;;;;;;5062919;28;20028;-76
2022/07/06 06:05:16;;;;;;;5.75;2.60;;;20.40;81.70;;;;;;5062277;28;20033;-76
2022/07/06 06:07:43;;;;;;;5.20;2.70;;;20.30;81.40;;;;;;5055744;28;20033;-76
2022/07/06 06:10:11;;;;;;;5.40;2.90;;;20.40;81.50;;;;;;5047837;28;20130;-76
2022/07/06 06:12:38;;;;;;;8.38;2.90;;;20.50;81.30;;;;;;5057491;28;20044;-75
2022/07/06 06:15:05;;;;;;;6.65;3.50;;;20.60;81.30;;;;;;5060173;28;20516;-76
2022/07/06 06:17:31;;;;;;;8.40;3.30;;;20.60;81.00;;;;;;5060502;28;20078;-76
2022/07/06 06:19:58;;;;;;;8.90;3.60;;;20.60;81.20;;;;;;5058421;28;20025;-75
2022/07/06 06:22:24;;;;;;;9.07;2.70;;;20.70;81.40;;;;;;5056885;28;20033;-75
2022/07/06 06:24:49;;;;;;;4.60;2.72;;;20.80;81.40;;;;;;5055767;28;20362;-75
2022/07/06 06:27:15;;;;;;;4.18;2.88;;;20.90;81.40;;;;;;5056952;28;20036;-75
2022/07/06 06:29:41;;;;;;;5.47;3.22;;;20.90;80.60;;;;;;5053413;28;20051;-76
2022/07/06 06:32:07;;;;;;;3.88;2.78;;;20.90;79.90;;;;;;5059734;28;20103;-75
2022/07/06 06:34:33;;;;;;;3.75;2.58;;;21.00;79.60;;;;;;5052119;28;20405;-75
2022/07/06 06:36:59;;;;;;;5.72;2.80;;;21.00;79.50;;;;;;5056082;28;20029;-75
2022/07/06 06:39:25;;;;;;;3.70;2.70;;;21.10;79.50;;;;;;5054421;28;20028;-75
2022/07/06 06:41:50;;;;;;;5.45;3.03;;;21.00;79.40;;;;;;5054362;28;20432;-75
2022/07/06 06:44:17;;;;;;;5.72;2.70;;;20.90;79.40;;;;;;5055836;28;20039;-75
2022/07/06 06:46:43;;;;;;;7.28;2.95;;;20.90;79.60;;;;;;5061463;28;20128;-74
2022/07/06 06:49:10;;;;;;;7.25;2.60;;;20.90;79.90;;;;;;5053070;28;20112;-75
2022/07/06 06:51:37;;;;;;;5.75;2.80;;;20.90;79.90;;;;;;5058760;28;20036;-76
2022/07/06 06:54:03;;;;;;;4.45;3.03;;;20.70;80.00;;;;;;5059296;28;20025;-75
2022/07/06 06:56:28;;;;;;;4.95;3.03;;;20.60;80.40;;;;;;5056019;28;20507;-76
2022/07/06 06:58:54;;;;;;;7.05;3.10;;;20.50;80.60;;;;;;5055175;28;20165;-76
2022/07/06 07:01:20;;;;;;;8.90;3.17;;;20.50;81.10;;;;;;5052508;28;20037;-76
2022/07/06 07:03:45;;;;;;;8.77;3.22;;;20.40;81.30;;;;;;5053447;28;20039;-76
2022/07/06 07:06:11;;;;;;;4.85;2.58;;;20.40;81.40;;;;;;5054845;28;20036;-76
2022/07/06 07:08:37;;;;;;;7.05;3.22;;;20.50;81.90;;;;;;5050542;28;20029;-76
2022/07/06 07:11:03;;;;;;;5.88;3.03;;;20.40;81.50;;;;;;5051645;28;20377;-76
2022/07/06 07:13:28;;;;;;;11.13;3.33;;;20.50;81.10;;;;;;5055644;28;20021;-76
2022/07/06 07:15:54;;;;;;;5.88;2.92;;;20.40;80.50;;;;;;5051401;28;20025;-76
2022/07/06 07:18:19;;;;;;;4.60;3.28;;;20.30;81.00;;;;;;5055384;28;20057;-76
2022/07/06 07:20:45;;;;;;;5.30;2.63;;;20.40;81.40;;;;;;5058080;28;20041;-76
2022/07/06 07:23:11;;;;;;;6.47;2.78;;;20.30;81.30;;;;;;5041048;28;20048;-75
2022/07/06 07:25:38;;;;;;;6.47;3.08;;;20.30;81.60;;;;;;5051879;28;20025;-76
2022/07/06 07:28:04;;;;;;;8.15;2.70;;;20.20;81.50;;;;;;5055311;28;20432;-76
2022/07/06 07:30:30;;;;;;;4.85;2.80;;;20.20;81.70;;;;;;5052230;28;20052;-76
2022/07/06 07:32:56;;;;;;;7.85;3.38;;;20.20;81.70;;;;;;5059329;28;20067;-76
2022/07/06 07:35:23;;;;;;;7.35;3.15;;;20.20;82.00;;;;;;5055945;28;20087;-77
2022/07/06 07:37:49;;;;;;;8.75;2.60;;;20.20;82.10;;;;;;5052748;28;20489;-77
2022/07/06 07:40:14;;;;;;;3.30;2.50;;;20.10;82.20;;;;;;5058181;28;20089;-78
2022/07/06 07:42:40;;;;;;;7.28;2.80;;;20.10;82.80;;;;;;5043119;28;20048;-76
2022/07/06 07:45:07;;;;;;;5.60;2.80;;;20.10;82.80;;;;;;5035568;28;20064;-76
2022/07/06 07:47:34;;;;;;;5.03;3.30;;;20.20;83.10;;;;;;5056575;28;20021;-76
2022/07/06 07:49:59;;;;;;;8.02;3.40;;;20.20;82.90;;;;;;5058436;28;20021;-76
2022/07/06 07:52:25;;;;;;;7.50;3.58;;;20.10;83.10;;;;;;5061851;28;20173;-77
2022/07/06 07:54:51;;;;;;;8.40;3.30;;;20.10;83.10;;;;;;5043604;28;20016;-77
2022/07/06 07:57:17;;;;;;;4.75;3.08;;;20.10;83.60;;;;;;5058001;28;21515;-76
2022/07/06 07:59:43;;;;;;;9.13;3.63;;;20.20;83.10;;;;;;5053127;28;20037;-76
2022/07/06 08:02:08;;;;;;;5.47;3.20;;;20.20;83.30;;;;;;5057495;28;20025;-75
2022/07/06 08:04:34;;;;;;;11.90;3.00;;;20.10;83.50;;;;;;5062737;28;20031;-76
2022/07/06 08:07:00;;;;;;;6.20;2.95;;;20.20;83.60;;;;;;5058679;28;20028;-76
2022/07/06 08:09:26;;;;;;;10.80;3.70;;;20.10;83.50;;;;;;5057989;28;20028;-75
2022/07/06 08:11:51;;;;;;;5.22;3.38;;;20.20;83.20;;;;;;5053729;28;20031;-75
2022/07/06 08:14:17;;;;;;;11.00;3.22;;;20.20;83.00;;;;;;5059117;28;20404;-76
2022/07/06 08:16:43;;;;;;;7.47;3.80;;;20.20;83.30;;;;;;5061966;28;20456;-76
2022/07/06 08:19:09;;;;;;;8.02;3.20;;;20.30;83.30;;;;;;5039688;28;20032;-76
2022/07/06 08:21:35;;;;;;;8.35;3.55;;;20.30;83.20;;;;;;5062896;28;20024;-75
2022/07/06 08:24:01;;;;;;;8.40;3.08;;;20.40;83.10;;;;;;5068125;28;20036;-75
2022/07/06 08:26:28;;;;;;;9.98;3.15;;;20.50;83.00;;;;;;5037136;28;20021;-75
2022/07/06 08:28:54;;;;;;;9.10;2.72;;;20.50;82.90;;;;;;5034131;28;20108;-75
2022/07/06 08:31:20;;;;;;;4.97;3.35;;;20.50;83.20;;;;;;5033067;28;20041;-77
2022/07/06 08:33:45;;;;;;;8.13;3.22;;;20.60;83.40;;;;;;5045327;28;20021;-77
2022/07/06 08:36:11;;;;;;;5.25;2.90;;;20.70;82.80;;;;;;5054858;28;20032;-77
2022/07/06 08:38:37;;;;;;;17.63;3.47;;;20.70;82.90;;;;;;5052316;28;20039;-79
2022/07/06 08:41:05;;;;;;;10.73;3.05;;;20.70;82.90;;;;;;5046355;28;20025;-77
2022/07/06 08:43:32;;;;;;;11.45;3.15;;;20.80;82.90;;;;;;5032805;28;20060;-77
2022/07/06 08:45:58;;;;;;;7.80;3.08;;;20.90;83.20;;;;;;5046970;28;20059;-77
2022/07/06 08:48:25;;;;;;;6.78;3.28;;;20.90;82.60;;;;;;5037275;28;20389;-77
2022/07/06 08:50:51;;;;;;;4.20;2.85;;;21.00;82.30;;;;;;5034477;28;20043;-76
2022/07/06 08:53:17;;;;;;;8.13;2.80;;;21.10;82.30;;;;;;5048421;28;20446;-79
2022/07/06 08:55:43;;;;;;;6.93;2.88;;;21.20;82.00;;;;;;5054225;28;20033;-76
2022/07/06 08:58:09;;;;;;;8.10;3.00;;;21.20;81.00;;;;;;5056990;28;20385;-77
2022/07/06 09:00:36;;;;;;;6.00;3.00;;;21.30;80.80;;;;;;5054185;28;20028;-77
2022/07/06 09:03:02;;;;;;;5.45;2.80;;;21.40;80.90;;;;;;5058844;28;20079;-79
2022/07/06 09:05:29;;;;;;;4.68;2.85;;;21.40;80.50;;;;;;5056440;28;20032;-78
2022/07/06 09:07:56;;;;;;;3.38;2.45;;;21.50;80.40;;;;;;5059394;28;20025;-77
2022/07/06 09:10:26;;;;;;;5.43;3.08;;;21.50;80.10;;;;;;5047913;28;20064;-76
2022/07/06 09:12:51;;;;;;;5.47;2.80;;;21.60;80.10;;;;;;5032220;28;20055;-76
2022/07/06 09:15:17;;;;;;;9.48;3.40;;;21.70;80.30;;;;;;5052250;28;20071;-76
2022/07/06 09:17:43;;;;;;;6.65;2.70;;;21.70;79.20;;;;;;5049235;28;20024;-76
2022/07/06 09:20:11;;;;;;;7.78;3.05;;;21.60;79.40;;;;;;5050312;28;20036;-77
2022/07/06 09:22:38;;;;;;;5.18;3.00;;;21.60;79.50;;;;;;5053784;28;20028;-75
2022/07/06 09:25:14;;;;;;;9.35;3.05;;;21.60;79.80;;;;;;5035995;28;20021;-76
2022/07/06 09:27:49;;;;;;;8.73;2.47;;;21.70;79.60;;;;;;5058629;28;20037;-78
2022/07/06 09:30:16;;;;;;;5.93;2.67;;;21.70;79.80;;;;;;5061553;28;20017;-78
2022/07/06 09:32:44;;;;;;;6.22;3.15;;;21.70;79.20;;;;;;5061471;28;20029;-78
2022/07/06 09:35:25;;;;;;;4.32;2.53;;;21.90;78.70;;;;;;5057272;28;20025;-78
2022/07/06 09:38:19;;;;;;;6.60;2.30;;;22.00;77.90;;;;;;5041565;28;20077;-78
2022/07/06 09:40:45;;;;;;;3.80;2.28;;;22.10;77.40;;;;;;5032486;28;20061;-78
2022/07/06 09:43:11;;;;;;;3.42;2.50;;;22.20;77.20;;;;;;5036693;28;20050;-79
2022/07/06 09:45:38;;;;;;;4.38;2.78;;;22.40;76.70;;;;;;5051162;28;20037;-80
2022/07/06 09:48:24;;;;;;;6.53;2.80;;;22.40;76.50;;;;;;5045103;28;20021;-79
2022/07/06 09:50:53;;;;;;;6.85;2.47;;;22.40;75.80;;;;;;5029722;28;20427;-78
2022/07/06 09:53:20;;;;;;;5.97;2.70;;;22.50;76.30;;;;;;5044889;28;20115;-79
2022/07/06 09:55:50;;;;;;;4.75;2.55;;;22.40;75.60;;;;;;5049079;28;20406;-79
2022/07/06 09:58:17;;;;;;;8.27;2.70;;;22.50;75.50;;;;;;5047148;28;20033;-79
2022/07/06 10:00:44;;;;;;;3.35;2.20;;;22.50;75.40;;;;;;5055267;28;20040;-78
2022/07/06 10:03:10;;;;;;;2.72;2.00;;;22.40;74.90;;;;;;5055097;28;20021;-78
2022/07/06 10:05:37;;;;;;;6.82;2.80;;;22.40;74.40;;;;;;5048910;28;20037;-78
2022/07/06 10:08:05;;;;;;;4.68;2.50;;;22.50;74.40;;;;;;5052311;28;20136;-78
2022/07/06 10:10:32;;;;;;;7.47;2.30;;;22.50;74.30;;;;;;5055705;28;20017;-77
2022/07/06 10:12:59;;;;;;;4.85;2.80;;;22.60;74.50;;;;;;5058490;28;20032;-79
2022/07/06 10:15:26;;;;;;;6.00;2.30;;;22.70;74.30;;;;;;5050120;28;20112;-77
2022/07/06 10:17:53;;;;;;;3.80;1.70;;;22.60;73.30;;;;;;5053983;28;20044;-78
2022/07/06 10:20:19;;;;;;;3.55;2.22;;;22.60;73.50;;;;;;5049846;28;20032;-77
2022/07/06 10:22:49;;;;;;;5.53;2.03;;;22.70;73.40;;;;;;5045518;28;20037;-78
2022/07/06 10:25:17;;;;;;;4.32;2.47;;;22.80;73.60;;;;;;5055780;28;20052;-79
2022/07/06 10:27:44;;;;;;;2.70;1.48;;;22.80;73.20;;;;;;5045109;28;20593;-78
2022/07/06 10:30:10;;;;;;;2.75;2.25;;;23.00;73.40;;;;;;5047297;28;20021;-77
2022/07/06 10:32:40;;;;;;;6.95;2.53;;;23.10;72.60;;;;;;5056320;28;20124;-79
2022/07/06 10:35:06;;;;;;;3.00;1.98;;;23.10;71.30;;;;;;5056172;28;20020;-78
2022/07/06 10:37:33;;;;;;;2.75;2.17;;;23.20;71.60;;;;;;5055351;28;20032;-78
2022/07/06 10:42:56;;;;;;;5.20;2.25;;;23.30;71.40;;;;;;5058346;28;20027;-79
2022/07/06 10:45:28;;;;;;;4.43;2.67;;;23.20;71.40;;;;;;5066330;28;20048;-78
2022/07/06 10:48:12;;;;;;;4.35;2.45;;;23.20;72.00;;;;;;5060727;28;20424;-77
2022/07/06 10:50:44;;;;;;;2.53;2.05;;;23.20;72.20;;;;;;5055372;28;20084;-78
2022/07/06 10:53:17;;;;;;;4.88;2.47;;;23.10;71.90;;;;;;5057684;28;20025;-78
2022/07/06 10:55:47;;;;;;;3.45;2.10;;;23.10;72.40;;;;;;5054024;28;20114;-78
2022/07/06 10:58:14;;;;;;;5.45;2.13;;;23.00;72.10;;;;;;5041547;28;20390;-78
2022/07/06 11:00:53;;;;;;;3.30;1.90;;;23.00;72.10;;;;;;5055366;28;20037;-79
2022/07/06 11:03:43;;;;;;;2.90;2.10;;;23.10;71.40;;;;;;5057462;28;20074;-79
2022/07/06 11:06:21;;;;;;;6.25;2.00;;;23.10;71.00;;;;;;5063780;28;20509;-79
2022/07/06 11:08:49;;;;;;;6.38;2.03;;;23.20;70.20;;;;;;5054721;28;20024;-77
2022/07/06 11:11:33;;;;;;;3.13;1.92;;;23.20;70.10;;;;;;5057117;28;20382;-78
2022/07/06 11:14:11;;;;;;;4.18;2.10;;;23.20;70.20;;;;;;5055345;28;20024;-78
2022/07/06 11:16:48;;;;;;;3.83;2.10;;;23.20;70.20;;;;;;5059663;28;20040;-78
2022/07/06 11:19:25;;;;;;;4.13;2.25;;;23.20;70.00;;;;;;5062123;28;20053;-78
2022/07/06 11:21:51;;;;;;;5.38;2.65;;;23.20;71.20;;;;;;5057742;28;20492;-79
2022/07/06 11:24:22;;;;;;;5.40;2.40;;;23.20;71.50;;;;;;5057091;28;20179;-78
2022/07/06 11:26:49;;;;;;;4.32;2.20;;;23.30;71.80;;;;;;5050435;28;20885;-78
2022/07/06 11:29:17;;;;;;;5.50;2.30;;;23.40;72.10;;;;;;5037862;28;20104;-78
2022/07/06 11:31:48;;;;;;;5.72;2.40;;;23.60;71.80;;;;;;5061856;28;20036;-79
2022/07/06 11:34:22;;;;;;;2.55;2.33;;;23.70;70.60;;;;;;5062215;28;20022;-78
2022/07/06 11:36:49;;;;;;;7.00;2.50;;;24.00;69.30;;;;;;5066416;28;20033;-78
2022/07/06 11:39:15;;;;;;;5.38;2.30;;;24.10;69.70;;;;;;5063673;28;20047;-78
2022/07/06 11:41:42;;;;;;;7.18;2.70;;;24.10;69.60;;;;;;5054861;28;20058;-78
2022/07/06 11:44:08;;;;;;;10.00;2.88;;;24.00;69.40;;;;;;5059542;28;20124;-78
2022/07/06 11:46:34;;;;;;;3.92;2.33;;;24.00;69.50;;;;;;5040480;28;20112;-78
2022/07/06 11:49:05;;;;;;;3.85;2.70;;;23.80;69.70;;;;;;5055388;28;20088;-78
2022/07/06 11:51:37;;;;;;;5.10;2.35;;;23.70;70.40;;;;;;5050563;28;20477;-79
2022/07/06 11:54:19;;;;;;;5.38;2.33;;;23.60;71.10;;;;;;5059894;28;20474;-78
2022/07/06 11:56:51;;;;;;;13.30;3.65;;;23.60;70.70;;;;;;5039702;28;20040;-75
2022/07/06 11:59:24;;;;;;;3.17;2.20;;;23.50;70.70;;;;;;5025645;28;20397;-75
2022/07/06 12:01:57;;;;;;;4.70;2.13;;;23.50;70.50;;;;;;5032288;28;20393;-75
2022/07/06 12:04:25;;;;;;;6.28;2.72;;;23.40;70.40;;;;;;5050223;28;20029;-75
2022/07/06 12:06:51;;;;;;;4.82;2.50;;;23.40;70.70;;;;;;5056291;28;20071;-76
2022/07/06 12:09:17;;;;;;;9.00;3.00;;;23.30;70.40;;;;;;5041243;28;20032;-75
2022/07/06 12:11:48;;;;;;;5.47;2.13;;;23.30;71.50;;;;;;5052942;28;20032;-75
2022/07/06 12:14:17;;;;;;;5.07;2.30;;;23.30;71.20;;;;;;5031634;28;20040;-75
2022/07/06 12:16:43;;;;;;;5.35;2.30;;;23.20;71.10;;;;;;5039543;28;20064;-75
2022/07/06 12:19:11;;;;;;;6.03;2.90;;;23.10;71.30;;;;;;5028988;28;20049;-75
2022/07/06 12:21:46;;;;;;;3.45;2.42;;;23.10;71.80;;;;;;5056234;28;20390;-78
2022/07/06 12:24:27;;;;;;;5.00;2.00;;;23.10;71.70;;;;;;5055759;28;20025;-78
2022/07/06 12:26:55;;;;;;;5.10;2.08;;;23.00;71.40;;;;;;5055410;28;20106;-77
2022/07/06 12:29:22;;;;;;;6.40;2.38;;;23.00;71.90;;;;;;5055195;28;20612;-77
2022/07/06 12:31:49;;;;;;;2.85;2.25;;;23.10;72.00;;;;;;5056734;28;20021;-78
2022/07/06 12:34:26;;;;;;;5.28;2.30;;;23.20;71.70;;;;;;5057746;28;20017;-78
2022/07/06 12:36:57;;;;;;;5.18;2.25;;;23.20;71.30;;;;;;5035800;28;20020;-77
2022/07/06 12:39:28;;;;;;;3.15;2.17;;;23.30;71.50;;;;;;5058073;28;20033;-77
2022/07/06 12:42:02;;;;;;;7.28;2.60;;;23.40;71.00;;;;;;5049470;28;20451;-78
2022/07/06 12:44:29;;;;;;;5.03;2.20;;;23.40;71.20;;;;;;5059380;28;20471;-77
2022/07/06 12:47:05;;;;;;;6.00;2.85;;;23.60;71.40;;;;;;5055440;28;20027;-78
2022/07/06 12:49:31;;;;;;;3.97;2.53;;;23.60;71.80;;;;;;5040056;28;20033;-78
2022/07/06 12:52:10;;;;;;;5.13;2.35;;;23.70;72.30;;;;;;5070715;28;20128;-78
2022/07/06 12:54:47;;;;;;;5.90;2.30;;;23.60;72.40;;;;;;5063176;28;20026;-79